sensor_id;sensor_type;location;lat;lon;timestamp;temperature;humidity
35497;DHT22;21609;49.298;6.844;2023-06-10T00:00:50;23.90;52.10
35497;DHT22;21609;49.298;6.844;2023-06-10T00:03:16;23.90;52.00
35497;DHT22;21609;49.298;6.844;2023-06-10T00:05:43;23.90;52.00
35497;DHT22;21609;49.298;6.844;2023-06-10T00:08:08;23.90;52.00
35497;DHT22;21609;49.298;6.844;2023-06-10T00:10:38;23.90;52.50
35497;DHT22;21609;49.298;6.844;2023-06-10T00:13:04;23.90;52.00
35497;DHT22;21609;49.298;6.844;2023-06-10T00:15:30;23.90;52.40
35497;DHT22;21609;49.298;6.844;2023-06-10T00:17:56;23.90;51.80
35497;DHT22;21609;49.298;6.844;2023-06-10T00:20:22;23.90;51.90
35497;DHT22;21609;49.298;6.844;2023-06-10T00:22:49;23.90;51.30
35497;DHT22;21609;49.298;6.844;2023-06-10T00:25:15;23.90;52.00
35497;DHT22;21609;49.298;6.844;2023-06-10T00:27:40;23.90;52.30
35497;DHT22;21609;49.298;6.844;2023-06-10T00:30:06;23.90;52.10
35497;DHT22;21609;49.298;6.844;2023-06-10T00:32:33;23.90;52.20
35497;DHT22;21609;49.298;6.844;2023-06-10T00:34:58;23.90;52.00
35497;DHT22;21609;49.298;6.844;2023-06-10T00:37:24;23.90;52.20
35497;DHT22;21609;49.298;6.844;2023-06-10T00:39:50;23.90;51.90
35497;DHT22;21609;49.298;6.844;2023-06-10T00:42:15;23.90;52.00
35497;DHT22;21609;49.298;6.844;2023-06-10T00:44:41;23.90;52.30
35497;DHT22;21609;49.298;6.844;2023-06-10T00:47:07;23.90;52.40
35497;DHT22;21609;49.298;6.844;2023-06-10T00:49:33;23.90;52.10
35497;DHT22;21609;49.298;6.844;2023-06-10T00:52:00;23.90;52.00
35497;DHT22;21609;49.298;6.844;2023-06-10T00:54:25;23.80;52.20
35497;DHT22;21609;49.298;6.844;2023-06-10T00:56:52;23.80;52.20
35497;DHT22;21609;49.298;6.844;2023-06-10T00:59:18;23.80;52.00
35497;DHT22;21609;49.298;6.844;2023-06-10T01:01:45;23.80;52.30
35497;DHT22;21609;49.298;6.844;2023-06-10T01:04:12;23.80;51.80
35497;DHT22;21609;49.298;6.844;2023-06-10T01:06:45;23.80;52.10
35497;DHT22;21609;49.298;6.844;2023-06-10T01:09:38;23.80;52.00
35497;DHT22;21609;49.298;6.844;2023-06-10T01:12:29;23.80;52.30
35497;DHT22;21609;49.298;6.844;2023-06-10T01:14:56;23.80;52.30
35497;DHT22;21609;49.298;6.844;2023-06-10T01:17:23;23.80;52.20
35497;DHT22;21609;49.298;6.844;2023-06-10T01:19:56;23.80;52.70
35497;DHT22;21609;49.298;6.844;2023-06-10T01:22:26;23.80;52.10
35497;DHT22;21609;49.298;6.844;2023-06-10T01:24:55;23.80;52.20
35497;DHT22;21609;49.298;6.844;2023-06-10T01:27:26;23.80;52.30
35497;DHT22;21609;49.298;6.844;2023-06-10T01:30:03;23.80;52.40
35497;DHT22;21609;49.298;6.844;2023-06-10T01:32:37;23.70;52.40
35497;DHT22;21609;49.298;6.844;2023-06-10T01:35:05;23.80;52.30
35497;DHT22;21609;49.298;6.844;2023-06-10T01:37:31;23.70;52.20
35497;DHT22;21609;49.298;6.844;2023-06-10T01:39:58;23.80;52.30
35497;DHT22;21609;49.298;6.844;2023-06-10T01:42:25;23.80;52.40
35497;DHT22;21609;49.298;6.844;2023-06-10T01:44:50;23.70;52.00
35497;DHT22;21609;49.298;6.844;2023-06-10T01:47:16;23.70;52.70
35497;DHT22;21609;49.298;6.844;2023-06-10T01:49:42;23.70;52.20
35497;DHT22;21609;49.298;6.844;2023-06-10T01:52:07;23.70;52.50
35497;DHT22;21609;49.298;6.844;2023-06-10T01:54:33;23.70;52.60
35497;DHT22;21609;49.298;6.844;2023-06-10T01:57:00;23.70;52.70
35497;DHT22;21609;49.298;6.844;2023-06-10T01:59:26;23.70;52.40
35497;DHT22;21609;49.298;6.844;2023-06-10T02:01:51;23.70;52.30
35497;DHT22;21609;49.298;6.844;2023-06-10T02:04:17;23.70;52.50
35497;DHT22;21609;49.298;6.844;2023-06-10T02:06:43;23.70;52.10
35497;DHT22;21609;49.298;6.844;2023-06-10T02:09:08;23.70;52.30
35497;DHT22;21609;49.298;6.844;2023-06-10T02:11:34;23.70;52.10
35497;DHT22;21609;49.298;6.844;2023-06-10T02:13:59;23.70;52.30
35497;DHT22;21609;49.298;6.844;2023-06-10T02:16:25;23.70;52.50
35497;DHT22;21609;49.298;6.844;2023-06-10T02:18:52;23.60;52.50
35497;DHT22;21609;49.298;6.844;2023-06-10T02:21:17;23.60;52.40
35497;DHT22;21609;49.298;6.844;2023-06-10T02:23:43;23.60;52.50
35497;DHT22;21609;49.298;6.844;2023-06-10T02:26:08;23.60;52.40
35497;DHT22;21609;49.298;6.844;2023-06-10T02:28:34;23.60;52.30
35497;DHT22;21609;49.298;6.844;2023-06-10T02:30:59;23.60;52.30
35497;DHT22;21609;49.298;6.844;2023-06-10T02:33:25;23.60;52.60
35497;DHT22;21609;49.298;6.844;2023-06-10T02:35:52;23.60;52.60
35497;DHT22;21609;49.298;6.844;2023-06-10T02:38:17;23.60;52.40
35497;DHT22;21609;49.298;6.844;2023-06-10T02:40:43;23.60;52.40
35497;DHT22;21609;49.298;6.844;2023-06-10T02:43:09;23.60;52.80
35497;DHT22;21609;49.298;6.844;2023-06-10T02:45:34;23.60;52.80
35497;DHT22;21609;49.298;6.844;2023-06-10T02:48:00;23.60;53.10
35497;DHT22;21609;49.298;6.844;2023-06-10T02:50:26;23.60;52.60
35497;DHT22;21609;49.298;6.844;2023-06-10T02:52:51;23.60;52.60
35497;DHT22;21609;49.298;6.844;2023-06-10T02:55:17;23.60;52.30
35497;DHT22;21609;49.298;6.844;2023-06-10T02:57:42;23.60;52.50
35497;DHT22;21609;49.298;6.844;2023-06-10T03:00:08;23.60;52.40
35497;DHT22;21609;49.298;6.844;2023-06-10T03:02:40;23.60;52.80
35497;DHT22;21609;49.298;6.844;2023-06-10T03:05:06;23.60;52.70
35497;DHT22;21609;49.298;6.844;2023-06-10T03:07:36;23.50;52.70
35497;DHT22;21609;49.298;6.844;2023-06-10T03:10:02;23.50;52.60
35497;DHT22;21609;49.298;6.844;2023-06-10T03:12:27;23.50;52.40
35497;DHT22;21609;49.298;6.844;2023-06-10T03:14:53;23.50;52.80
35497;DHT22;21609;49.298;6.844;2023-06-10T03:17:18;23.60;52.80
35497;DHT22;21609;49.298;6.844;2023-06-10T03:19:44;23.50;52.80
35497;DHT22;21609;49.298;6.844;2023-06-10T03:22:12;23.50;52.70
35497;DHT22;21609;49.298;6.844;2023-06-10T03:24:38;23.50;52.60
35497;DHT22;21609;49.298;6.844;2023-06-10T03:27:07;23.50;52.70
35497;DHT22;21609;49.298;6.844;2023-06-10T03:29:33;23.50;52.60
35497;DHT22;21609;49.298;6.844;2023-06-10T03:31:58;23.50;53.00
35497;DHT22;21609;49.298;6.844;2023-06-10T03:34:24;23.50;53.00
35497;DHT22;21609;49.298;6.844;2023-06-10T03:36:50;23.50;52.90
35497;DHT22;21609;49.298;6.844;2023-06-10T03:39:15;23.50;52.60
35497;DHT22;21609;49.298;6.844;2023-06-10T03:41:41;23.50;52.80
35497;DHT22;21609;49.298;6.844;2023-06-10T03:44:07;23.50;52.90
35497;DHT22;21609;49.298;6.844;2023-06-10T03:46:32;23.50;52.80
35497;DHT22;21609;49.298;6.844;2023-06-10T03:48:58;23.50;52.90
35497;DHT22;21609;49.298;6.844;2023-06-10T03:51:26;23.50;52.50
35497;DHT22;21609;49.298;6.844;2023-06-10T03:53:51;23.40;52.80
35497;DHT22;21609;49.298;6.844;2023-06-10T03:56:17;23.40;53.10
35497;DHT22;21609;49.298;6.844;2023-06-10T03:58:43;23.40;53.00
35497;DHT22;21609;49.298;6.844;2023-06-10T04:01:08;23.50;53.30
35497;DHT22;21609;49.298;6.844;2023-06-10T04:03:34;23.40;53.00
35497;DHT22;21609;49.298;6.844;2023-06-10T04:05:59;23.40;53.30
35497;DHT22;21609;49.298;6.844;2023-06-10T04:08:25;23.40;53.10
35497;DHT22;21609;49.298;6.844;2023-06-10T04:10:51;23.40;53.20
35497;DHT22;21609;49.298;6.844;2023-06-10T04:13:16;23.40;53.00
35497;DHT22;21609;49.298;6.844;2023-06-10T04:15:42;23.40;52.70
35497;DHT22;21609;49.298;6.844;2023-06-10T04:18:08;23.40;52.80
35497;DHT22;21609;49.298;6.844;2023-06-10T04:20:33;23.40;52.40
35497;DHT22;21609;49.298;6.844;2023-06-10T04:22:59;23.40;52.80
35497;DHT22;21609;49.298;6.844;2023-06-10T04:25:25;23.40;52.90
35497;DHT22;21609;49.298;6.844;2023-06-10T04:27:51;23.40;52.80
35497;DHT22;21609;49.298;6.844;2023-06-10T04:30:17;23.40;53.10
35497;DHT22;21609;49.298;6.844;2023-06-10T04:32:43;23.40;52.80
35497;DHT22;21609;49.298;6.844;2023-06-10T04:35:11;23.40;52.50
35497;DHT22;21609;49.298;6.844;2023-06-10T04:37:37;23.40;52.80
35497;DHT22;21609;49.298;6.844;2023-06-10T04:40:03;23.40;52.50
35497;DHT22;21609;49.298;6.844;2023-06-10T04:42:28;23.40;52.70
35497;DHT22;21609;49.298;6.844;2023-06-10T04:44:54;23.40;52.90
35497;DHT22;21609;49.298;6.844;2023-06-10T04:47:19;23.40;53.00
35497;DHT22;21609;49.298;6.844;2023-06-10T04:49:45;23.40;52.80
35497;DHT22;21609;49.298;6.844;2023-06-10T04:52:11;23.40;52.20
35497;DHT22;21609;49.298;6.844;2023-06-10T04:54:36;23.40;51.90
35497;DHT22;21609;49.298;6.844;2023-06-10T04:57:02;23.40;52.20
35497;DHT22;21609;49.298;6.844;2023-06-10T04:59:28;23.40;52.60
35497;DHT22;21609;49.298;6.844;2023-06-10T05:01:53;23.40;52.50
35497;DHT22;21609;49.298;6.844;2023-06-10T05:04:20;23.40;52.60
35497;DHT22;21609;49.298;6.844;2023-06-10T05:06:45;23.40;52.50
35497;DHT22;21609;49.298;6.844;2023-06-10T05:09:11;23.40;52.40
35497;DHT22;21609;49.298;6.844;2023-06-10T05:11:36;23.40;52.60
35497;DHT22;21609;49.298;6.844;2023-06-10T05:14:02;23.40;52.70
35497;DHT22;21609;49.298;6.844;2023-06-10T05:16:27;23.40;52.70
35497;DHT22;21609;49.298;6.844;2023-06-10T05:18:53;23.50;52.70
35497;DHT22;21609;49.298;6.844;2023-06-10T05:21:18;23.50;52.80
35497;DHT22;21609;49.298;6.844;2023-06-10T05:23:44;23.50;52.50
35497;DHT22;21609;49.298;6.844;2023-06-10T05:26:10;23.50;52.70
35497;DHT22;21609;49.298;6.844;2023-06-10T05:28:36;23.50;52.80
35497;DHT22;21609;49.298;6.844;2023-06-10T05:31:01;23.50;52.70
35497;DHT22;21609;49.298;6.844;2023-06-10T05:33:27;23.50;51.80
35497;DHT22;21609;49.298;6.844;2023-06-10T05:35:52;23.50;52.60
35497;DHT22;21609;49.298;6.844;2023-06-10T05:38:18;23.50;52.90
35497;DHT22;21609;49.298;6.844;2023-06-10T05:40:44;23.50;53.00
35497;DHT22;21609;49.298;6.844;2023-06-10T05:43:09;23.50;53.20
35497;DHT22;21609;49.298;6.844;2023-06-10T05:45:36;23.50;53.30
35497;DHT22;21609;49.298;6.844;2023-06-10T05:48:02;23.50;53.00
35497;DHT22;21609;49.298;6.844;2023-06-10T05:50:28;23.50;52.10
35497;DHT22;21609;49.298;6.844;2023-06-10T05:52:53;23.50;52.80
35497;DHT22;21609;49.298;6.844;2023-06-10T05:55:20;23.50;53.00
35497;DHT22;21609;49.298;6.844;2023-06-10T05:57:45;23.50;52.10
35497;DHT22;21609;49.298;6.844;2023-06-10T06:00:11;23.50;52.70
35497;DHT22;21609;49.298;6.844;2023-06-10T06:02:37;23.50;53.00
35497;DHT22;21609;49.298;6.844;2023-06-10T06:05:03;23.50;53.00
35497;DHT22;21609;49.298;6.844;2023-06-10T06:07:29;23.50;53.00
35497;DHT22;21609;49.298;6.844;2023-06-10T06:09:55;23.50;53.20
35497;DHT22;21609;49.298;6.844;2023-06-10T06:12:20;23.50;53.10
35497;DHT22;21609;49.298;6.844;2023-06-10T06:14:46;23.50;52.40
35497;DHT22;21609;49.298;6.844;2023-06-10T06:17:11;23.50;52.60
35497;DHT22;21609;49.298;6.844;2023-06-10T06:19:37;23.50;53.20
35497;DHT22;21609;49.298;6.844;2023-06-10T06:22:03;23.50;52.90
35497;DHT22;21609;49.298;6.844;2023-06-10T06:24:29;23.50;53.20
35497;DHT22;21609;49.298;6.844;2023-06-10T06:26:54;23.50;53.20
35497;DHT22;21609;49.298;6.844;2023-06-10T06:29:20;23.50;53.00
35497;DHT22;21609;49.298;6.844;2023-06-10T06:31:45;23.50;53.30
35497;DHT22;21609;49.298;6.844;2023-06-10T06:34:11;23.50;53.70
35497;DHT22;21609;49.298;6.844;2023-06-10T06:36:36;23.50;53.60
35497;DHT22;21609;49.298;6.844;2023-06-10T06:39:02;23.50;53.80
35497;DHT22;21609;49.298;6.844;2023-06-10T06:41:28;23.60;53.50
35497;DHT22;21609;49.298;6.844;2023-06-10T06:43:54;23.60;53.40
35497;DHT22;21609;49.298;6.844;2023-06-10T06:46:20;23.50;53.60
35497;DHT22;21609;49.298;6.844;2023-06-10T06:48:47;23.50;53.20
35497;DHT22;21609;49.298;6.844;2023-06-10T06:51:13;23.50;53.30
35497;DHT22;21609;49.298;6.844;2023-06-10T06:53:39;23.50;53.50
35497;DHT22;21609;49.298;6.844;2023-06-10T06:56:10;23.50;53.10
35497;DHT22;21609;49.298;6.844;2023-06-10T06:58:35;23.60;52.30
35497;DHT22;21609;49.298;6.844;2023-06-10T07:01:01;23.50;52.80
35497;DHT22;21609;49.298;6.844;2023-06-10T07:03:27;23.50;53.00
35497;DHT22;21609;49.298;6.844;2023-06-10T07:05:52;23.60;53.10
35497;DHT22;21609;49.298;6.844;2023-06-10T07:08:18;23.60;52.90
35497;DHT22;21609;49.298;6.844;2023-06-10T07:10:43;23.60;52.70
35497;DHT22;21609;49.298;6.844;2023-06-10T07:13:09;23.60;53.20
35497;DHT22;21609;49.298;6.844;2023-06-10T07:15:34;23.60;52.70
35497;DHT22;21609;49.298;6.844;2023-06-10T07:18:00;23.60;52.70
35497;DHT22;21609;49.298;6.844;2023-06-10T07:20:26;23.60;52.30
35497;DHT22;21609;49.298;6.844;2023-06-10T07:22:51;23.60;52.70
35497;DHT22;21609;49.298;6.844;2023-06-10T07:25:17;23.60;52.70
35497;DHT22;21609;49.298;6.844;2023-06-10T07:27:42;23.60;52.80
35497;DHT22;21609;49.298;6.844;2023-06-10T07:30:08;23.60;52.50
35497;DHT22;21609;49.298;6.844;2023-06-10T07:32:34;23.60;52.40
35497;DHT22;21609;49.298;6.844;2023-06-10T07:34:59;23.60;52.20
35497;DHT22;21609;49.298;6.844;2023-06-10T07:37:25;23.60;52.60
35497;DHT22;21609;49.298;6.844;2023-06-10T07:39:51;23.60;52.50
35497;DHT22;21609;49.298;6.844;2023-06-10T07:42:16;23.60;52.50
35497;DHT22;21609;49.298;6.844;2023-06-10T07:44:42;23.60;52.20
35497;DHT22;21609;49.298;6.844;2023-06-10T07:47:08;23.60;52.20
35497;DHT22;21609;49.298;6.844;2023-06-10T07:49:34;23.60;52.10
35497;DHT22;21609;49.298;6.844;2023-06-10T07:51:59;23.60;52.10
35497;DHT22;21609;49.298;6.844;2023-06-10T07:54:25;23.60;52.60
35497;DHT22;21609;49.298;6.844;2023-06-10T07:56:50;23.60;52.00
35497;DHT22;21609;49.298;6.844;2023-06-10T07:59:18;23.60;52.40
35497;DHT22;21609;49.298;6.844;2023-06-10T08:01:44;23.60;52.50
35497;DHT22;21609;49.298;6.844;2023-06-10T08:04:09;23.60;51.80
35497;DHT22;21609;49.298;6.844;2023-06-10T08:06:35;23.60;52.10
35497;DHT22;21609;49.298;6.844;2023-06-10T08:09:02;23.60;52.10
35497;DHT22;21609;49.298;6.844;2023-06-10T08:11:28;23.60;52.20
35497;DHT22;21609;49.298;6.844;2023-06-10T08:13:55;23.60;52.10
35497;DHT22;21609;49.298;6.844;2023-06-10T08:16:20;23.60;52.90
35497;DHT22;21609;49.298;6.844;2023-06-10T08:18:46;23.70;52.50
35497;DHT22;21609;49.298;6.844;2023-06-10T08:21:12;23.70;52.10
35497;DHT22;21609;49.298;6.844;2023-06-10T08:23:37;23.70;52.50
35497;DHT22;21609;49.298;6.844;2023-06-10T08:26:03;23.70;52.40
35497;DHT22;21609;49.298;6.844;2023-06-10T08:28:28;23.70;52.60
35497;DHT22;21609;49.298;6.844;2023-06-10T08:30:54;23.70;52.40
35497;DHT22;21609;49.298;6.844;2023-06-10T08:33:19;23.70;52.20
35497;DHT22;21609;49.298;6.844;2023-06-10T08:35:45;23.70;52.40
35497;DHT22;21609;49.298;6.844;2023-06-10T08:38:11;23.70;52.50
35497;DHT22;21609;49.298;6.844;2023-06-10T08:40:37;23.70;51.80
35497;DHT22;21609;49.298;6.844;2023-06-10T08:43:07;23.70;52.30
35497;DHT22;21609;49.298;6.844;2023-06-10T08:45:35;23.80;51.60
35497;DHT22;21609;49.298;6.844;2023-06-10T08:48:03;23.80;52.40
35497;DHT22;21609;49.298;6.844;2023-06-10T08:50:34;23.80;51.90
35497;DHT22;21609;49.298;6.844;2023-06-10T08:53:00;23.80;51.30
35497;DHT22;21609;49.298;6.844;2023-06-10T08:55:30;23.80;51.90
35497;DHT22;21609;49.298;6.844;2023-06-10T08:57:58;23.80;51.90
35497;DHT22;21609;49.298;6.844;2023-06-10T09:00:25;23.80;51.90
35497;DHT22;21609;49.298;6.844;2023-06-10T09:02:51;23.80;51.80
35497;DHT22;21609;49.298;6.844;2023-06-10T09:05:17;23.80;52.00
35497;DHT22;21609;49.298;6.844;2023-06-10T09:07:43;23.80;51.80
35497;DHT22;21609;49.298;6.844;2023-06-10T09:10:10;23.80;51.80
35497;DHT22;21609;49.298;6.844;2023-06-10T09:12:36;23.80;51.60
35497;DHT22;21609;49.298;6.844;2023-06-10T09:15:03;23.80;51.50
35497;DHT22;21609;49.298;6.844;2023-06-10T09:17:30;23.80;51.50
35497;DHT22;21609;49.298;6.844;2023-06-10T09:19:55;23.80;51.40
35497;DHT22;21609;49.298;6.844;2023-06-10T09:22:23;23.80;51.50
35497;DHT22;21609;49.298;6.844;2023-06-10T09:24:49;23.80;51.40
35497;DHT22;21609;49.298;6.844;2023-06-10T09:27:15;23.80;51.10
35497;DHT22;21609;49.298;6.844;2023-06-10T09:29:55;23.90;51.40
35497;DHT22;21609;49.298;6.844;2023-06-10T09:32:23;23.90;51.40
35497;DHT22;21609;49.298;6.844;2023-06-10T09:34:49;23.90;51.50
35497;DHT22;21609;49.298;6.844;2023-06-10T09:37:25;23.90;51.70
35497;DHT22;21609;49.298;6.844;2023-06-10T09:40:03;23.90;51.90
35497;DHT22;21609;49.298;6.844;2023-06-10T09:42:33;23.90;51.20
35497;DHT22;21609;49.298;6.844;2023-06-10T09:44:59;23.90;51.10
35497;DHT22;21609;49.298;6.844;2023-06-10T09:47:25;23.90;51.20
35497;DHT22;21609;49.298;6.844;2023-06-10T09:49:51;23.90;51.20
35497;DHT22;21609;49.298;6.844;2023-06-10T09:52:26;23.90;51.50
35497;DHT22;21609;49.298;6.844;2023-06-10T09:54:52;23.90;51.10
35497;DHT22;21609;49.298;6.844;2023-06-10T09:57:21;23.90;51.10
35497;DHT22;21609;49.298;6.844;2023-06-10T09:59:47;24.00;51.40
35497;DHT22;21609;49.298;6.844;2023-06-10T10:02:14;24.00;51.50
35497;DHT22;21609;49.298;6.844;2023-06-10T10:04:40;24.00;51.30
35497;DHT22;21609;49.298;6.844;2023-06-10T10:07:06;24.00;51.30
35497;DHT22;21609;49.298;6.844;2023-06-10T10:09:35;24.00;51.30
35497;DHT22;21609;49.298;6.844;2023-06-10T10:12:02;24.00;51.10
35497;DHT22;21609;49.298;6.844;2023-06-10T10:14:28;24.00;51.60
35497;DHT22;21609;49.298;6.844;2023-06-10T10:16:57;24.00;51.40
35497;DHT22;21609;49.298;6.844;2023-06-10T10:19:33;24.00;50.90
35497;DHT22;21609;49.298;6.844;2023-06-10T10:22:06;24.00;51.10
35497;DHT22;21609;49.298;6.844;2023-06-10T10:24:37;24.00;51.60
35497;DHT22;21609;49.298;6.844;2023-06-10T10:27:11;24.00;50.90
35497;DHT22;21609;49.298;6.844;2023-06-10T10:29:39;24.00;51.00
35497;DHT22;21609;49.298;6.844;2023-06-10T10:32:07;24.10;51.00
35497;DHT22;21609;49.298;6.844;2023-06-10T10:34:49;24.10;51.20
35497;DHT22;21609;49.298;6.844;2023-06-10T10:37:16;24.10;51.00
35497;DHT22;21609;49.298;6.844;2023-06-10T10:39:42;24.10;51.10
35497;DHT22;21609;49.298;6.844;2023-06-10T10:42:08;24.10;51.60
35497;DHT22;21609;49.298;6.844;2023-06-10T10:44:37;24.10;51.40
35497;DHT22;21609;49.298;6.844;2023-06-10T10:47:03;24.10;51.10
35497;DHT22;21609;49.298;6.844;2023-06-10T10:49:30;24.10;51.20
35497;DHT22;21609;49.298;6.844;2023-06-10T10:51:58;24.10;51.50
35497;DHT22;21609;49.298;6.844;2023-06-10T10:54:31;24.20;51.20
35497;DHT22;21609;49.298;6.844;2023-06-10T11:02:10;24.20;51.10
35497;DHT22;21609;49.298;6.844;2023-06-10T11:04:45;24.20;50.90
35497;DHT22;21609;49.298;6.844;2023-06-10T11:07:11;24.20;51.00
35497;DHT22;21609;49.298;6.844;2023-06-10T11:12:50;24.20;50.90
35497;DHT22;21609;49.298;6.844;2023-06-10T11:15:24;24.20;50.60
35497;DHT22;21609;49.298;6.844;2023-06-10T11:26:14;24.20;50.50
35497;DHT22;21609;49.298;6.844;2023-06-10T11:28:41;24.30;50.30
35497;DHT22;21609;49.298;6.844;2023-06-10T11:31:08;24.30;50.80
35497;DHT22;21609;49.298;6.844;2023-06-10T11:33:38;24.20;50.60
35497;DHT22;21609;49.298;6.844;2023-06-10T11:36:07;24.30;50.60
35497;DHT22;21609;49.298;6.844;2023-06-10T11:38:33;24.30;50.80
35497;DHT22;21609;49.298;6.844;2023-06-10T11:40:58;24.30;50.40
35497;DHT22;21609;49.298;6.844;2023-06-10T11:43:25;24.30;50.80
35497;DHT22;21609;49.298;6.844;2023-06-10T11:45:54;24.30;50.30
35497;DHT22;21609;49.298;6.844;2023-06-10T11:48:20;24.30;50.80
35497;DHT22;21609;49.298;6.844;2023-06-10T11:50:46;24.40;51.20
35497;DHT22;21609;49.298;6.844;2023-06-10T11:53:11;24.40;51.10
35497;DHT22;21609;49.298;6.844;2023-06-10T11:55:43;24.40;51.70
35497;DHT22;21609;49.298;6.844;2023-06-10T11:58:17;24.40;51.50
35497;DHT22;21609;49.298;6.844;2023-06-10T12:00:50;24.40;51.70
35497;DHT22;21609;49.298;6.844;2023-06-10T12:03:17;24.40;51.60
35497;DHT22;21609;49.298;6.844;2023-06-10T12:05:59;24.40;51.60
35497;DHT22;21609;49.298;6.844;2023-06-10T12:08:26;24.40;51.30
35497;DHT22;21609;49.298;6.844;2023-06-10T12:10:53;24.40;51.40
35497;DHT22;21609;49.298;6.844;2023-06-10T12:13:18;24.40;51.50
35497;DHT22;21609;49.298;6.844;2023-06-10T12:15:44;24.50;51.20
35497;DHT22;21609;49.298;6.844;2023-06-10T12:18:21;24.40;51.10
35497;DHT22;21609;49.298;6.844;2023-06-10T12:20:47;24.50;51.20
35497;DHT22;21609;49.298;6.844;2023-06-10T12:23:15;24.50;51.30
35497;DHT22;21609;49.298;6.844;2023-06-10T12:25:50;24.50;51.30
35497;DHT22;21609;49.298;6.844;2023-06-10T12:28:17;24.50;51.00
35497;DHT22;21609;49.298;6.844;2023-06-10T12:30:45;24.50;50.50
35497;DHT22;21609;49.298;6.844;2023-06-10T12:33:21;24.50;50.70
35497;DHT22;21609;49.298;6.844;2023-06-10T12:35:48;24.50;50.50
35497;DHT22;21609;49.298;6.844;2023-06-10T12:38:14;24.50;51.10
35497;DHT22;21609;49.298;6.844;2023-06-10T12:40:47;24.50;51.30
35497;DHT22;21609;49.298;6.844;2023-06-10T12:43:13;24.60;50.90
35497;DHT22;21609;49.298;6.844;2023-06-10T12:45:44;24.50;50.60
35497;DHT22;21609;49.298;6.844;2023-06-10T12:48:10;24.60;50.60
35497;DHT22;21609;49.298;6.844;2023-06-10T12:50:38;24.60;50.40
35497;DHT22;21609;49.298;6.844;2023-06-10T12:53:04;24.60;50.70
35497;DHT22;21609;49.298;6.844;2023-06-10T12:55:30;24.60;50.30
35497;DHT22;21609;49.298;6.844;2023-06-10T12:57:55;24.60;50.70
35497;DHT22;21609;49.298;6.844;2023-06-10T13:00:22;24.60;50.60
35497;DHT22;21609;49.298;6.844;2023-06-10T13:02:53;24.60;51.00
35497;DHT22;21609;49.298;6.844;2023-06-10T13:05:19;24.60;51.80
35497;DHT22;21609;49.298;6.844;2023-06-10T13:07:46;24.60;50.30
35497;DHT22;21609;49.298;6.844;2023-06-10T13:10:13;24.60;51.40
35497;DHT22;21609;49.298;6.844;2023-06-10T13:12:39;24.60;50.60
35497;DHT22;21609;49.298;6.844;2023-06-10T13:15:05;24.60;50.50
35497;DHT22;21609;49.298;6.844;2023-06-10T13:17:31;24.70;50.50
35497;DHT22;21609;49.298;6.844;2023-06-10T13:19:57;24.70;50.50
35497;DHT22;21609;49.298;6.844;2023-06-10T13:22:22;24.70;50.30
35497;DHT22;21609;49.298;6.844;2023-06-10T13:24:49;24.70;50.30
35497;DHT22;21609;49.298;6.844;2023-06-10T13:27:14;24.70;50.40
35497;DHT22;21609;49.298;6.844;2023-06-10T13:29:40;24.70;51.10
35497;DHT22;21609;49.298;6.844;2023-06-10T13:32:06;24.70;50.50
35497;DHT22;21609;49.298;6.844;2023-06-10T13:34:32;24.70;50.40
35497;DHT22;21609;49.298;6.844;2023-06-10T13:36:57;24.70;50.70
35497;DHT22;21609;49.298;6.844;2023-06-10T13:39:23;24.80;50.40
35497;DHT22;21609;49.298;6.844;2023-06-10T13:41:49;24.80;50.60
35497;DHT22;21609;49.298;6.844;2023-06-10T13:44:14;24.80;50.40
35497;DHT22;21609;49.298;6.844;2023-06-10T13:46:40;24.80;50.50
35497;DHT22;21609;49.298;6.844;2023-06-10T13:49:06;24.80;50.60
35497;DHT22;21609;49.298;6.844;2023-06-10T13:51:31;24.80;50.60
35497;DHT22;21609;49.298;6.844;2023-06-10T13:53:57;24.80;50.50
35497;DHT22;21609;49.298;6.844;2023-06-10T13:56:22;24.80;50.20
35497;DHT22;21609;49.298;6.844;2023-06-10T13:58:48;24.80;50.50
35497;DHT22;21609;49.298;6.844;2023-06-10T14:01:14;24.80;50.70
35497;DHT22;21609;49.298;6.844;2023-06-10T14:03:39;24.80;51.10
35497;DHT22;21609;49.298;6.844;2023-06-10T14:06:05;24.80;50.20
35497;DHT22;21609;49.298;6.844;2023-06-10T14:08:30;24.90;50.50
35497;DHT22;21609;49.298;6.844;2023-06-10T14:10:56;24.90;50.40
35497;DHT22;21609;49.298;6.844;2023-06-10T14:13:22;24.90;50.30
35497;DHT22;21609;49.298;6.844;2023-06-10T14:15:47;24.90;50.30
35497;DHT22;21609;49.298;6.844;2023-06-10T14:18:13;24.90;50.30
35497;DHT22;21609;49.298;6.844;2023-06-10T14:20:38;24.90;50.30
35497;DHT22;21609;49.298;6.844;2023-06-10T14:23:04;24.90;50.90
35497;DHT22;21609;49.298;6.844;2023-06-10T14:25:29;24.90;50.50
35497;DHT22;21609;49.298;6.844;2023-06-10T14:27:55;24.90;50.30
35497;DHT22;21609;49.298;6.844;2023-06-10T14:30:21;24.90;50.40
35497;DHT22;21609;49.298;6.844;2023-06-10T14:32:46;24.90;50.60
35497;DHT22;21609;49.298;6.844;2023-06-10T14:35:12;24.90;50.20
35497;DHT22;21609;49.298;6.844;2023-06-10T14:37:37;24.90;50.50
35497;DHT22;21609;49.298;6.844;2023-06-10T14:40:04;24.90;50.10
35497;DHT22;21609;49.298;6.844;2023-06-10T14:42:30;24.90;50.50
35497;DHT22;21609;49.298;6.844;2023-06-10T14:44:57;24.90;50.40
35497;DHT22;21609;49.298;6.844;2023-06-10T14:47:23;24.90;50.30
35497;DHT22;21609;49.298;6.844;2023-06-10T14:49:49;24.90;50.20
35497;DHT22;21609;49.298;6.844;2023-06-10T14:52:14;24.90;50.20
35497;DHT22;21609;49.298;6.844;2023-06-10T14:54:40;24.90;50.20
35497;DHT22;21609;49.298;6.844;2023-06-10T14:57:05;24.90;50.30
35497;DHT22;21609;49.298;6.844;2023-06-10T14:59:31;24.90;50.40
35497;DHT22;21609;49.298;6.844;2023-06-10T15:01:56;25.00;50.10
35497;DHT22;21609;49.298;6.844;2023-06-10T15:04:23;24.90;50.70
35497;DHT22;21609;49.298;6.844;2023-06-10T15:06:48;24.90;50.20
35497;DHT22;21609;49.298;6.844;2023-06-10T15:09:15;25.00;50.30
35497;DHT22;21609;49.298;6.844;2023-06-10T15:11:41;25.00;50.20
35497;DHT22;21609;49.298;6.844;2023-06-10T15:14:06;25.00;50.40
35497;DHT22;21609;49.298;6.844;2023-06-10T15:16:32;25.00;50.30
35497;DHT22;21609;49.298;6.844;2023-06-10T15:18:57;25.00;50.20
35497;DHT22;21609;49.298;6.844;2023-06-10T15:21:23;25.00;50.10
35497;DHT22;21609;49.298;6.844;2023-06-10T15:23:48;25.00;50.20
35497;DHT22;21609;49.298;6.844;2023-06-10T15:26:14;25.00;50.10
35497;DHT22;21609;49.298;6.844;2023-06-10T15:28:40;25.00;50.00
35497;DHT22;21609;49.298;6.844;2023-06-10T15:31:05;25.00;50.10
35497;DHT22;21609;49.298;6.844;2023-06-10T15:33:31;25.00;50.30
35497;DHT22;21609;49.298;6.844;2023-06-10T15:35:56;25.00;50.10
35497;DHT22;21609;49.298;6.844;2023-06-10T15:38:22;25.00;49.80
35497;DHT22;21609;49.298;6.844;2023-06-10T15:40:48;25.00;50.10
35497;DHT22;21609;49.298;6.844;2023-06-10T15:43:13;25.00;49.90